• Join FlightAware (Why Join?)
  • Login
  • US Flag 
10:52PM EDT


 

Airport Tracker/Info


-or-


 

Live Flight TrackerFlight Track Log ✈ KAP550 ✈ 08-May-2013 ✈ KALB - KMSS

Flight Track Log - Related Links

Times and Time Zones

All times are in EDT time to prevent confusion due to time zone crossing. See the KAP550 flight status page for this flight to view local times or setup timezone preferences in your user account.

Time Position Orientation Groundspeed Altitude Reporting Facility
EDT Latitude Longitude Course Direction KTS MPH feet Rate Location/Type
10:29AM 42.8825 -73.9333 341° North 142 163 5,500  Level Boston Center
10:30AM 42.9219 -73.9514 341° North 148 170 5,800 300 Climbing Boston Center
10:31AM 42.9611 -73.9694 341° North 154 177 6,200 300 Climbing Boston Center
10:32AM 43.0025 -73.9872 343° North 154 177 6,500 120 Climbing Boston Center
10:33AM 43.0483 -74.0056 344° North 164 189 6,500  Level Boston Center
10:34AM 43.0939 -74.0208 346° North 171 197 6,500  Level Boston Center
10:35AM 43.1353 -74.0419 340° North 172 198 6,500  Level Boston Center
10:36AM 43.1869 -74.0661 341° North 172 198 6,500 180 Level Boston Center
10:37AM 43.2242 -74.0842 341° North 162 186 6,900 600 Climbing Boston Center
10:38AM 43.2678 -74.1053 341° North 157 181 7,700 660 Climbing Boston Center
10:39AM 43.3050 -74.1206 343° North 147 169 8,300 360 Climbing Boston Center
10:40AM 43.3528 -74.1392 344° North 152 175 8,500 60 Climbing Boston Center
10:41AM 43.3919 -74.1544 344° North 157 181 8,500  Level Boston Center
10:42AM 43.4375 -74.1728 344° North 163 188 8,500  Level Boston Center
10:43AM 43.4811 -74.1914 343° North 163 188 8,500  Level Boston Center
10:44AM 43.5247 -74.2069 345° North 163 188 8,500  Level Boston Center
10:45AM 43.5661 -74.2281 340° North 163 188 8,500  Level Boston Center
10:46AM 43.6094 -74.2467 343° North 163 188 8,500  Level Boston Center
10:47AM 43.6489 -74.2650 341° North 158 182 8,500  Level Boston Center
10:48AM 43.6922 -74.2806 345° North 158 182 8,500  Level Boston Center
10:49AM 43.7378 -74.3050 339° North 163 188 8,500  Level Boston Center
10:50AM 43.7772 -74.3206 344° North 163 188 8,500  Level Boston Center
10:51AM 43.8164 -74.3392 341° North 163 188 8,500  Level Boston Center
10:52AM 43.8578 -74.3550 345° North 158 182 8,500  Level Boston Center
10:53AM 43.9075 -74.3767 343° North 158 182 8,500  Level Boston Center
10:54AM 43.9447 -74.3922 343° North 158 182 8,500  Level Boston Center
10:55AM 43.9881 -74.4139 340° North 153 176 8,500  Level Boston Center
10:56AM 44.0294 -74.4297 345° North 153 176 8,500  Level Boston Center
10:57AM 44.0689 -74.4483 341° North 148 170 8,500  Level Boston Center
10:58AM 44.1122 -74.4700 340° North 148 170 8,500 -240 Level Boston Center
10:59AM 44.1536 -74.4858 345° North 148 170 8,100 -540 Descending Boston Center
11:00AM 44.2011 -74.5047 344° North 160 184 7,500 -600 Descending Boston Center
11:01AM 44.2486 -74.5297 339° North 166 191 6,900 -600 Descending Boston Center
11:02AM 44.2961 -74.5517 342° North 166 191 6,300 -600 Descending Boston Center
11:03AM 44.3417 -74.5736 341° North 166 191 5,800 -600 Descending Boston Center
11:04AM 44.3869 -74.5928 343° North 166 191 5,200 -600 Descending Boston Center
11:05AM 44.4325 -74.6117 344° North 166 191 4,700 -420 Descending Boston Center
11:06AM 44.4656 -74.6275 341° North 166 191 4,400 -420 Descending Boston Center
11:07AM 44.5089 -74.6494 340° North 166 191 3,900 1,020 Descending Boston Center
11:08AM 44.5522 -74.6744 338° Northwest 166 191 6,500 2,580 Climbing Boston Center